Meteo Giornale » Osservazioni meteo Stati Uniti (USA) » North Platte
ore: 15:53 - Osservazioni Meteo North Platte
Lat. 41° 7' N Lon. 100° 40' W Alt. 846 metri s.l.m.
32 °C
Sereno
Temp. 24 Ore
14 °C
33 °C
Nord
0 Km/h
Dew point 17 °C
Umidità 40 %
Visibilità 10 Km
Il sole sorge alle ore 07:08
Il sole tramonta alle ore 20:17
| Data e Ora | Cielo e Fenomeni | T °C | DP °C | Um. % | Pres. hPa | Vis. km | Vento km/h | |
|---|---|---|---|---|---|---|---|---|
| Oggi h: 15:53 | Sereno | 32 | 17 | 40 | 1015 | 10 | N 0 | |
| Oggi h: 14:53 | Sereno | 31 | 17 | 43 | 1016 | 10 | O 7.4 | |
| Oggi h: 13:53 | Sereno | 31 | 18 | 45 | 1016 | 10 | N 0 | |
| Oggi h: 12:53 | Sereno | 29 | 19 | 54 | 1017 | 10 | O 7.4 | |
| Oggi h: 11:53 | Sereno | 27 | 17 | 54 | 1017 | 10 | N 7.4 | |
| Oggi h: 10:53 | Sereno | 24 | 16 | 60 | 1017 | 10 | N 0 | |
| Oggi h: 09:53 | Sereno | 21 | 15 | 68 | 1017 | 10 | N 0 | |
| Oggi h: 08:53 | Sereno | 18 | 14 | 77 | 1017 | 10 | N 0 | |
| Oggi h: 07:53 | Sereno | 15 | 14 | 93 | 1017 | 10 | N 0 | |
| Oggi h: 06:53 | Sereno | 14 | 13 | 93 | 1016 | 10 | N 0 | |
| Oggi h: 05:53 | Nuvoloso | 15 | 14 | 93 | 1016 | 10 | N/NO 7.4 | |
| Oggi h: 04:53 | Molto Nuvoloso | 17 | 13 | 77 | 1016 | 10 | N 0 | |
| Oggi h: 03:53 | Poco Nuvoloso | 17 | 13 | 77 | 1015 | 10 | N 5.5 | |
| Oggi h: 02:53 | Poco Nuvoloso | 17 | 15 | 88 | 1015 | 10 | N 0 | |
| Oggi h: 01:53 | Sereno | 19 | 17 | 88 | 1014 | 10 | N 0 | |
| Oggi h: 00:53 | Sereno | 19 | 17 | 88 | 1014 | 10 | N 0 | |
| Ieri h: 23:53 | Sereno | 21 | 18 | 82 | 1013 | 10 | NO 9.3 | |
| Ieri h: 22:53 | Sereno | 22 | 16 | 68 | 1013 | 10 | O/NO 9.3 | |
| Ieri h: 21:53 | Sereno | 27 | 13 | 42 | 1013 | 10 | SO 16.7 | |
| Ieri h: 20:53 | Sereno | 23 | 19 | 78 | 1012 | 10 | SE 7.4 | |
| Ieri h: 19:53 | Poco Nuvoloso | 26 | 21 | 73 | 1012 | 10 | N 5.5 | |
| Ieri h: 18:53 | Sereno | 31 | 18 | 45 | 1012 | 10 | N 0 | |
| Ieri h: 17:53 | Sereno | 31 | 19 | 48 | 1011 | 10 | N 5.5 | |
| Ieri h: 16:53 | Sereno | 33 | 16 | 36 | 1011 | 10 | O/SO 7.4 | |



